createdAt,value
2018-09-13T00:03:13.574Z,15.90
2018-09-13T00:09:17.204Z,15.80
2018-09-13T00:15:20.659Z,15.70
2018-09-13T00:21:24.131Z,15.60
2018-09-13T00:27:27.602Z,15.60
2018-09-13T00:33:31.169Z,15.60
2018-09-13T00:39:34.916Z,15.60
2018-09-13T00:45:39.550Z,15.60
2018-09-13T00:51:42.997Z,15.50
2018-09-13T00:57:46.526Z,15.50
2018-09-13T01:03:50.285Z,15.50
2018-09-13T01:09:54.026Z,15.40
2018-09-13T01:15:57.401Z,15.40
2018-09-13T01:22:00.719Z,15.40
2018-09-13T01:28:04.286Z,15.40
2018-09-13T01:34:07.979Z,15.30
2018-09-13T01:40:11.778Z,15.30
2018-09-13T01:46:15.513Z,15.30
2018-09-13T01:52:19.079Z,15.40
2018-09-13T01:58:22.703Z,15.30
2018-09-13T02:04:26.667Z,15.20
2018-09-13T02:10:30.354Z,15.10
2018-09-13T02:16:33.793Z,15.10
2018-09-13T02:22:37.443Z,15.00
2018-09-13T02:28:41.114Z,15.00
2018-09-13T02:34:46.122Z,15.00
2018-09-13T02:40:49.797Z,15.10
2018-09-13T02:46:53.750Z,15.10
2018-09-13T02:52:57.601Z,15.10
2018-09-13T02:59:01.543Z,15.10
2018-09-13T03:05:06.050Z,15.20
2018-09-13T03:11:10.439Z,15.10
2018-09-13T03:17:14.058Z,15.20
2018-09-13T03:23:17.790Z,15.20
2018-09-13T03:29:22.659Z,15.10
2018-09-13T03:35:26.666Z,15.10
2018-09-13T03:41:31.107Z,15.10
2018-09-13T03:47:35.541Z,15.10
2018-09-13T03:53:38.901Z,15.10
2018-09-13T03:59:42.391Z,15.10
2018-09-13T04:05:50.360Z,15.00
2018-09-13T04:11:56.946Z,15.10
2018-09-13T04:18:00.615Z,15.00
2018-09-13T04:24:04.417Z,14.80
2018-09-13T04:30:08.099Z,14.80
2018-09-13T04:36:12.015Z,14.80
2018-09-13T04:42:16.262Z,14.70
2018-09-13T04:48:19.942Z,14.60
2018-09-13T04:54:23.253Z,14.60
2018-09-13T05:00:27.235Z,14.60
2018-09-13T05:06:30.788Z,14.60
2018-09-13T05:12:34.673Z,14.60
2018-09-13T05:18:38.489Z,14.70
2018-09-13T05:24:42.590Z,14.70
2018-09-13T05:30:46.134Z,14.70
2018-09-13T05:36:50.056Z,14.70
2018-09-13T05:42:54.005Z,14.80
2018-09-13T05:48:57.734Z,14.80
2018-09-13T05:55:01.578Z,14.90
2018-09-13T06:01:05.624Z,14.90
2018-09-13T06:07:09.461Z,14.90
2018-09-13T06:13:13.333Z,14.90
2018-09-13T06:19:17.221Z,14.80
2018-09-13T06:25:20.932Z,14.80
2018-09-13T06:31:25.670Z,14.80
2018-09-13T06:37:29.296Z,14.80
2018-09-13T06:43:33.131Z,15.00
2018-09-13T06:49:38.410Z,14.90
2018-09-13T06:55:41.965Z,15.00
2018-09-13T07:01:46.155Z,15.10
2018-09-13T07:07:49.877Z,15.10
2018-09-13T07:13:56.297Z,15.10
2018-09-13T07:20:00.089Z,15.20
2018-09-13T07:26:03.519Z,15.30
2018-09-13T07:32:07.488Z,15.40
2018-09-13T07:38:11.239Z,15.40
2018-09-13T07:44:15.929Z,15.50
2018-09-13T07:50:20.362Z,15.40
2018-09-13T07:56:24.049Z,15.50
2018-09-13T08:02:27.462Z,15.60
2018-09-13T08:08:31.188Z,15.60
2018-09-13T08:14:36.321Z,15.60
2018-09-13T08:20:39.718Z,15.70
2018-09-13T08:26:43.330Z,16.00
2018-09-13T08:32:47.078Z,16.20
2018-09-13T08:38:54.144Z,16.30
2018-09-13T08:44:57.966Z,16.40
2018-09-13T08:51:01.675Z,16.40
2018-09-13T08:57:05.135Z,16.60
2018-09-13T09:03:08.641Z,16.60
2018-09-13T09:09:12.566Z,16.70
2018-09-13T09:15:16.492Z,16.90
2018-09-13T09:21:19.919Z,17.20
2018-09-13T09:27:23.791Z,17.30
2018-09-13T09:33:27.505Z,17.40
2018-09-13T09:39:32.206Z,17.40
2018-09-13T09:45:35.857Z,17.80
2018-09-13T09:51:40.268Z,18.10
2018-09-13T09:57:44.093Z,18.20
2018-09-13T10:03:52.184Z,18.10
2018-09-13T10:09:57.122Z,18.20
2018-09-13T10:16:06.455Z,18.20
2018-09-13T10:22:15.679Z,18.20
2018-09-13T10:28:24.980Z,18.10
2018-09-13T10:34:34.158Z,18.60
2018-09-13T10:40:43.268Z,18.80
2018-09-13T10:46:51.467Z,18.70
2018-09-13T10:53:58.941Z,18.40
2018-09-13T11:00:02.894Z,18.40
2018-09-13T11:06:07.346Z,18.40
2018-09-13T11:12:12.357Z,18.30
2018-09-13T11:18:16.293Z,18.50
2018-09-13T11:24:19.673Z,18.80
2018-09-13T11:30:24.566Z,19.10
2018-09-13T11:36:28.382Z,19.40
2018-09-13T11:42:31.872Z,19.50
2018-09-13T11:48:35.228Z,19.40
2018-09-13T11:54:38.789Z,19.50
2018-09-13T12:00:42.510Z,19.60
2018-09-13T12:06:46.537Z,19.60
2018-09-13T12:12:50.054Z,19.80
2018-09-13T12:18:53.479Z,20.00
2018-09-13T12:24:56.865Z,20.00
2018-09-13T12:31:00.400Z,20.10
2018-09-13T12:37:04.275Z,20.10
2018-09-13T12:43:07.911Z,20.10
2018-09-13T12:49:12.187Z,20.30
2018-09-13T12:55:15.602Z,20.40
2018-09-13T13:01:19.176Z,20.20
2018-09-13T13:07:22.847Z,20.10
2018-09-13T13:13:26.292Z,20.30
2018-09-13T13:19:29.834Z,20.40
2018-09-13T13:25:33.298Z,20.40
2018-09-13T13:31:36.671Z,20.40
2018-09-13T13:37:40.640Z,20.40
2018-09-13T13:43:44.229Z,20.30
2018-09-13T13:49:47.969Z,20.10
2018-09-13T13:55:51.330Z,20.00
2018-09-13T14:01:54.899Z,20.10
2018-09-13T14:07:58.457Z,20.20
2018-09-13T14:14:01.912Z,20.50
2018-09-13T14:20:05.493Z,20.90
2018-09-13T14:26:09.090Z,20.90
2018-09-13T14:32:13.158Z,20.80
2018-09-13T14:38:17.135Z,21.10
2018-09-13T14:44:20.825Z,21.20
2018-09-13T14:50:24.297Z,21.00
2018-09-13T14:56:28.458Z,20.80
2018-09-13T15:02:31.822Z,20.80
2018-09-13T15:08:35.183Z,20.80
2018-09-13T15:14:39.007Z,20.80
2018-09-13T15:20:42.671Z,20.90
2018-09-13T15:26:46.290Z,21.40
2018-09-13T15:32:49.801Z,21.20
2018-09-13T15:38:53.607Z,21.00
2018-09-13T15:44:57.062Z,20.70
2018-09-13T15:51:00.564Z,20.50
2018-09-13T15:57:07.353Z,20.30
2018-09-13T16:03:10.898Z,20.20
2018-09-13T16:09:14.770Z,20.10
2018-09-13T16:15:18.719Z,20.00
2018-09-13T16:21:23.723Z,20.00
2018-09-13T16:27:28.156Z,19.80
2018-09-13T16:33:31.786Z,19.80
2018-09-13T16:39:41.169Z,19.80
2018-09-13T16:45:44.997Z,19.70
2018-09-13T16:51:48.911Z,19.60
2018-09-13T16:57:53.313Z,19.50
2018-09-13T17:03:57.477Z,19.40
2018-09-13T17:10:02.570Z,19.20
2018-09-13T17:16:08.408Z,19.10
2018-09-13T17:22:14.183Z,18.90
2018-09-13T17:28:18.976Z,18.70
2018-09-13T17:34:27.639Z,18.60
2018-09-13T17:40:33.689Z,18.50
2018-09-13T17:46:40.035Z,18.20
2018-09-13T17:52:45.016Z,17.70
2018-09-13T18:05:02.593Z,17.30
2018-09-13T18:11:06.769Z,17.20
2018-09-13T18:17:11.297Z,17.10
2018-09-13T18:23:15.875Z,16.80
2018-09-13T18:29:20.581Z,16.60
2018-09-13T18:35:24.954Z,16.60
2018-09-13T18:41:28.802Z,16.50
2018-09-13T18:47:32.698Z,16.30
2018-09-13T18:53:37.073Z,16.30
2018-09-13T18:59:41.210Z,16.10
2018-09-13T19:05:45.099Z,16.00
2018-09-13T19:11:49.583Z,15.80
2018-09-13T19:17:53.717Z,15.60
2018-09-13T19:23:57.838Z,15.50
2018-09-13T19:30:02.029Z,15.40
2018-09-13T19:36:06.577Z,16.70
2018-09-13T19:42:11.937Z,15.60
2018-09-13T19:48:15.922Z,15.30
2018-09-13T19:54:22.897Z,15.10
2018-09-13T20:00:28.755Z,15.00
2018-09-13T20:06:35.159Z,14.80
2018-09-13T20:12:40.816Z,14.70
2018-09-13T20:18:50.955Z,14.60
2018-09-13T20:24:55.967Z,14.40
2018-09-13T20:30:59.783Z,14.20
2018-09-13T20:37:03.306Z,14.00
2018-09-13T20:43:07.108Z,13.90
2018-09-13T20:49:11.422Z,13.70
2018-09-13T20:55:15.154Z,13.70
2018-09-13T21:01:19.228Z,13.70
2018-09-13T21:07:23.019Z,13.70
2018-09-13T21:13:26.903Z,13.70
2018-09-13T21:19:30.710Z,13.70
2018-09-13T21:25:34.271Z,13.70
2018-09-13T21:31:38.353Z,13.70
2018-09-13T21:37:42.879Z,13.70
2018-09-13T21:43:46.589Z,13.60
2018-09-13T21:49:50.273Z,13.60
2018-09-13T21:55:54.005Z,13.50
2018-09-13T22:01:57.591Z,13.40
2018-09-13T22:08:01.085Z,13.30
2018-09-13T22:14:05.186Z,13.20
2018-09-13T22:20:08.837Z,13.20
2018-09-13T22:26:12.528Z,13.20
2018-09-13T22:32:17.074Z,13.10
2018-09-13T22:38:20.639Z,13.10
2018-09-13T22:44:24.033Z,13.00
2018-09-13T22:50:27.890Z,12.90
2018-09-13T22:56:31.502Z,12.80
2018-09-13T23:02:40.698Z,12.70
2018-09-13T23:08:44.422Z,12.50
2018-09-13T23:14:47.866Z,12.30
2018-09-13T23:20:51.669Z,12.20
2018-09-13T23:26:55.769Z,12.10
2018-09-13T23:32:59.495Z,11.80
2018-09-13T23:39:05.019Z,11.70
2018-09-13T23:45:08.814Z,11.60
2018-09-13T23:51:12.390Z,11.50
2018-09-13T23:57:15.938Z,11.40
